sensor_id;sensor_type;location;lat;lon;timestamp;P1;durP1;ratioP1;P2;durP2;ratioP2
6590;SDS011;3331;47.978;7.662;2022-07-10T00:02:28;2.83;;;2.40;;
6590;SDS011;3331;47.978;7.662;2022-07-10T00:05:23;2.37;;;2.17;;
6590;SDS011;3331;47.978;7.662;2022-07-10T00:11:31;2.13;;;1.93;;
6590;SDS011;3331;47.978;7.662;2022-07-10T00:14:13;3.63;;;1.90;;
6590;SDS011;3331;47.978;7.662;2022-07-10T00:17:44;4.03;;;2.07;;
6590;SDS011;3331;47.978;7.662;2022-07-10T00:23:16;1.97;;;1.50;;
6590;SDS011;3331;47.978;7.662;2022-07-10T00:32:17;2.17;;;1.97;;
6590;SDS011;3331;47.978;7.662;2022-07-10T00:35:03;3.67;;;2.40;;
6590;SDS011;3331;47.978;7.662;2022-07-10T01:15:28;3.93;;;2.50;;
6590;SDS011;3331;47.978;7.662;2022-07-10T01:30:28;2.93;;;2.60;;
6590;SDS011;3331;47.978;7.662;2022-07-10T01:37:14;5.07;;;2.27;;
6590;SDS011;3331;47.978;7.662;2022-07-10T01:39:47;2.67;;;2.47;;
6590;SDS011;3331;47.978;7.662;2022-07-10T02:09:08;3.33;;;2.50;;
6590;SDS011;3331;47.978;7.662;2022-07-10T02:13:34;2.27;;;2.13;;
6590;SDS011;3331;47.978;7.662;2022-07-10T02:15:13;4.70;;;1.90;;
6590;SDS011;3331;47.978;7.662;2022-07-10T02:21:43;3.57;;;2.30;;
6590;SDS011;3331;47.978;7.662;2022-07-10T02:24:22;3.20;;;2.50;;
6590;SDS011;3331;47.978;7.662;2022-07-10T02:27:39;2.70;;;2.50;;
6590;SDS011;3331;47.978;7.662;2022-07-10T02:31:16;3.47;;;3.10;;
6590;SDS011;3331;47.978;7.662;2022-07-10T04:03:46;8.37;;;3.53;;
6590;SDS011;3331;47.978;7.662;2022-07-10T04:06:55;5.80;;;3.30;;
6590;SDS011;3331;47.978;7.662;2022-07-10T04:19:06;3.53;;;2.60;;
6590;SDS011;3331;47.978;7.662;2022-07-10T04:24:56;8.90;;;3.27;;
6590;SDS011;3331;47.978;7.662;2022-07-10T04:27:45;3.07;;;2.87;;
6590;SDS011;3331;47.978;7.662;2022-07-10T04:33:30;2.37;;;2.10;;
6590;SDS011;3331;47.978;7.662;2022-07-10T04:36:45;2.77;;;1.67;;
6590;SDS011;3331;47.978;7.662;2022-07-10T04:39:38;2.60;;;2.40;;
6590;SDS011;3331;47.978;7.662;2022-07-10T04:42:29;7.47;;;2.23;;
6590;SDS011;3331;47.978;7.662;2022-07-10T04:48:08;2.40;;;2.10;;
6590;SDS011;3331;47.978;7.662;2022-07-10T04:50:59;3.17;;;2.10;;
6590;SDS011;3331;47.978;7.662;2022-07-10T04:53:46;3.93;;;2.20;;
6590;SDS011;3331;47.978;7.662;2022-07-10T04:56:38;7.53;;;2.27;;
6590;SDS011;3331;47.978;7.662;2022-07-10T04:59:27;3.03;;;1.90;;
6590;SDS011;3331;47.978;7.662;2022-07-10T05:02:44;2.50;;;1.80;;
6590;SDS011;3331;47.978;7.662;2022-07-10T05:09:47;3.30;;;2.07;;
6590;SDS011;3331;47.978;7.662;2022-07-10T05:27:09;5.07;;;1.97;;
6590;SDS011;3331;47.978;7.662;2022-07-10T05:29:49;4.17;;;1.97;;
6590;SDS011;3331;47.978;7.662;2022-07-10T05:33:01;2.07;;;1.87;;
6590;SDS011;3331;47.978;7.662;2022-07-10T05:35:59;5.70;;;1.93;;
6590;SDS011;3331;47.978;7.662;2022-07-10T05:54:45;4.40;;;2.10;;
6590;SDS011;3331;47.978;7.662;2022-07-10T05:57:32;3.73;;;1.80;;
6590;SDS011;3331;47.978;7.662;2022-07-10T06:00:28;3.17;;;1.83;;
6590;SDS011;3331;47.978;7.662;2022-07-10T06:03:00;3.20;;;1.90;;
6590;SDS011;3331;47.978;7.662;2022-07-10T06:05:52;4.13;;;1.73;;
6590;SDS011;3331;47.978;7.662;2022-07-10T06:11:34;2.40;;;1.63;;
6590;SDS011;3331;47.978;7.662;2022-07-10T06:17:19;3.73;;;1.90;;
6590;SDS011;3331;47.978;7.662;2022-07-10T06:19:55;2.57;;;1.80;;
6590;SDS011;3331;47.978;7.662;2022-07-10T06:22:30;3.20;;;1.80;;
6590;SDS011;3331;47.978;7.662;2022-07-10T06:25:31;3.53;;;1.80;;
6590;SDS011;3331;47.978;7.662;2022-07-10T06:28:20;3.87;;;1.80;;
6590;SDS011;3331;47.978;7.662;2022-07-10T06:30:53;2.53;;;1.77;;
6590;SDS011;3331;47.978;7.662;2022-07-10T06:33:57;3.13;;;1.60;;
6590;SDS011;3331;47.978;7.662;2022-07-10T06:36:40;4.57;;;1.57;;
6590;SDS011;3331;47.978;7.662;2022-07-10T06:39:47;3.33;;;1.80;;
6590;SDS011;3331;47.978;7.662;2022-07-10T06:42:48;3.00;;;1.80;;
6590;SDS011;3331;47.978;7.662;2022-07-10T06:45:42;4.73;;;1.93;;
6590;SDS011;3331;47.978;7.662;2022-07-10T06:57:51;3.50;;;1.77;;
6590;SDS011;3331;47.978;7.662;2022-07-10T07:49:37;4.97;;;1.83;;
6590;SDS011;3331;47.978;7.662;2022-07-10T07:52:41;3.77;;;1.40;;
6590;SDS011;3331;47.978;7.662;2022-07-10T12:29:32;4.57;;;1.80;;
6590;SDS011;3331;47.978;7.662;2022-07-10T12:32:44;5.57;;;1.70;;
6590;SDS011;3331;47.978;7.662;2022-07-10T12:35:24;3.10;;;1.67;;
6590;SDS011;3331;47.978;7.662;2022-07-10T12:38:06;6.03;;;1.70;;
6590;SDS011;3331;47.978;7.662;2022-07-10T12:41:20;1.70;;;1.10;;
6590;SDS011;3331;47.978;7.662;2022-07-10T12:44:15;6.70;;;1.53;;
6590;SDS011;3331;47.978;7.662;2022-07-10T12:47:16;3.80;;;1.40;;
6590;SDS011;3331;47.978;7.662;2022-07-10T12:49:53;7.83;;;1.93;;
6590;SDS011;3331;47.978;7.662;2022-07-10T12:52:29;2.67;;;1.50;;
6590;SDS011;3331;47.978;7.662;2022-07-10T12:55:09;3.27;;;1.70;;
6590;SDS011;3331;47.978;7.662;2022-07-10T12:58:04;2.17;;;1.43;;
6590;SDS011;3331;47.978;7.662;2022-07-10T13:00:45;2.00;;;1.60;;
6590;SDS011;3331;47.978;7.662;2022-07-10T13:03:20;7.40;;;1.80;;
6590;SDS011;3331;47.978;7.662;2022-07-10T13:08:54;1.50;;;1.30;;
6590;SDS011;3331;47.978;7.662;2022-07-10T13:11:31;4.33;;;1.27;;
6590;SDS011;3331;47.978;7.662;2022-07-10T13:14:07;3.27;;;1.43;;
6590;SDS011;3331;47.978;7.662;2022-07-10T13:16:43;4.97;;;1.83;;
6590;SDS011;3331;47.978;7.662;2022-07-10T13:19:32;4.97;;;1.67;;
6590;SDS011;3331;47.978;7.662;2022-07-10T13:22:15;4.90;;;1.60;;
6590;SDS011;3331;47.978;7.662;2022-07-10T13:24:46;2.40;;;1.50;;
6590;SDS011;3331;47.978;7.662;2022-07-10T13:27:13;1.77;;;1.30;;
6590;SDS011;3331;47.978;7.662;2022-07-10T13:29:54;2.67;;;1.50;;
6590;SDS011;3331;47.978;7.662;2022-07-10T13:33:08;5.73;;;1.27;;
6590;SDS011;3331;47.978;7.662;2022-07-10T13:38:53;2.23;;;1.20;;
6590;SDS011;3331;47.978;7.662;2022-07-10T13:41:42;4.13;;;1.50;;
6590;SDS011;3331;47.978;7.662;2022-07-10T13:44:44;5.83;;;1.50;;
6590;SDS011;3331;47.978;7.662;2022-07-10T13:47:33;2.47;;;1.50;;
6590;SDS011;3331;47.978;7.662;2022-07-10T13:50:36;2.17;;;1.40;;
6590;SDS011;3331;47.978;7.662;2022-07-10T13:53:31;0.70;;;0.70;;
6590;SDS011;3331;47.978;7.662;2022-07-10T13:56:29;1.70;;;1.30;;
6590;SDS011;3331;47.978;7.662;2022-07-10T13:59:40;4.23;;;1.20;;
6590;SDS011;3331;47.978;7.662;2022-07-10T14:36:42;3.60;;;1.20;;
6590;SDS011;3331;47.978;7.662;2022-07-10T15:26:44;2.03;;;0.63;;
6590;SDS011;3331;47.978;7.662;2022-07-10T15:33:52;9.60;;;1.30;;
6590;SDS011;3331;47.978;7.662;2022-07-10T15:39:41;1.13;;;0.60;;
6590;SDS011;3331;47.978;7.662;2022-07-10T17:03:52;3.03;;;1.10;;
6590;SDS011;3331;47.978;7.662;2022-07-10T17:06:29;7.97;;;1.30;;
6590;SDS011;3331;47.978;7.662;2022-07-10T17:09:18;2.17;;;0.90;;
6590;SDS011;3331;47.978;7.662;2022-07-10T17:11:51;2.47;;;0.63;;
6590;SDS011;3331;47.978;7.662;2022-07-10T17:14:19;3.30;;;0.90;;
6590;SDS011;3331;47.978;7.662;2022-07-10T17:16:46;5.10;;;0.90;;
6590;SDS011;3331;47.978;7.662;2022-07-10T17:19:23;2.10;;;0.80;;
6590;SDS011;3331;47.978;7.662;2022-07-10T17:22:03;0.50;;;0.50;;
6590;SDS011;3331;47.978;7.662;2022-07-10T17:25:04;1.90;;;0.90;;
6590;SDS011;3331;47.978;7.662;2022-07-10T17:27:27;2.30;;;0.73;;
6590;SDS011;3331;47.978;7.662;2022-07-10T17:30:03;1.47;;;0.77;;
6590;SDS011;3331;47.978;7.662;2022-07-10T17:32:35;0.87;;;0.57;;
6590;SDS011;3331;47.978;7.662;2022-07-10T17:35:14;7.07;;;1.17;;
6590;SDS011;3331;47.978;7.662;2022-07-10T17:37:41;3.87;;;1.00;;
6590;SDS011;3331;47.978;7.662;2022-07-10T17:40:08;2.17;;;0.93;;
6590;SDS011;3331;47.978;7.662;2022-07-10T17:42:35;7.67;;;0.80;;
6590;SDS011;3331;47.978;7.662;2022-07-10T17:45:31;3.13;;;0.70;;
6590;SDS011;3331;47.978;7.662;2022-07-10T17:48:16;2.67;;;0.80;;
6590;SDS011;3331;47.978;7.662;2022-07-10T19:49:36;4.20;;;1.10;;
6590;SDS011;3331;47.978;7.662;2022-07-10T19:52:05;1.47;;;1.00;;
6590;SDS011;3331;47.978;7.662;2022-07-10T19:54:33;2.20;;;1.13;;
6590;SDS011;3331;47.978;7.662;2022-07-10T19:57:00;1.50;;;1.20;;
6590;SDS011;3331;47.978;7.662;2022-07-10T19:59:27;3.07;;;1.00;;
6590;SDS011;3331;47.978;7.662;2022-07-10T20:01:57;2.37;;;1.07;;
6590;SDS011;3331;47.978;7.662;2022-07-10T20:04:27;2.43;;;1.10;;
6590;SDS011;3331;47.978;7.662;2022-07-10T20:06:56;1.10;;;1.00;;
6590;SDS011;3331;47.978;7.662;2022-07-10T20:09:23;2.23;;;1.03;;
6590;SDS011;3331;47.978;7.662;2022-07-10T20:11:49;2.23;;;1.20;;
6590;SDS011;3331;47.978;7.662;2022-07-10T20:14:16;4.60;;;1.30;;
6590;SDS011;3331;47.978;7.662;2022-07-10T20:16:43;3.53;;;1.30;;
6590;SDS011;3331;47.978;7.662;2022-07-10T20:19:11;2.63;;;1.03;;
6590;SDS011;3331;47.978;7.662;2022-07-10T20:21:38;1.73;;;1.00;;
6590;SDS011;3331;47.978;7.662;2022-07-10T20:24:07;2.90;;;1.20;;
6590;SDS011;3331;47.978;7.662;2022-07-10T20:26:36;1.40;;;1.23;;
6590;SDS011;3331;47.978;7.662;2022-07-10T20:29:22;2.43;;;1.07;;
6590;SDS011;3331;47.978;7.662;2022-07-10T20:31:50;2.87;;;1.13;;
6590;SDS011;3331;47.978;7.662;2022-07-10T20:34:16;2.70;;;1.13;;
6590;SDS011;3331;47.978;7.662;2022-07-10T20:36:44;2.67;;;1.20;;
6590;SDS011;3331;47.978;7.662;2022-07-10T20:39:32;6.03;;;1.23;;
6590;SDS011;3331;47.978;7.662;2022-07-10T20:42:04;1.43;;;1.13;;
6590;SDS011;3331;47.978;7.662;2022-07-10T20:44:31;2.93;;;1.27;;
6590;SDS011;3331;47.978;7.662;2022-07-10T20:50:01;1.60;;;1.37;;
6590;SDS011;3331;47.978;7.662;2022-07-10T20:53:04;1.70;;;1.20;;
6590;SDS011;3331;47.978;7.662;2022-07-10T20:56:01;4.03;;;1.47;;
6590;SDS011;3331;47.978;7.662;2022-07-10T20:58:45;1.47;;;1.10;;
6590;SDS011;3331;47.978;7.662;2022-07-10T21:01:28;1.43;;;1.13;;
6590;SDS011;3331;47.978;7.662;2022-07-10T21:04:03;3.87;;;1.60;;
6590;SDS011;3331;47.978;7.662;2022-07-10T21:06:30;1.57;;;1.00;;
6590;SDS011;3331;47.978;7.662;2022-07-10T21:08:59;1.63;;;1.30;;
6590;SDS011;3331;47.978;7.662;2022-07-10T21:11:41;2.17;;;1.17;;
6590;SDS011;3331;47.978;7.662;2022-07-10T21:14:18;4.87;;;1.43;;
6590;SDS011;3331;47.978;7.662;2022-07-10T21:17:13;2.87;;;1.30;;
6590;SDS011;3331;47.978;7.662;2022-07-10T21:19:52;2.37;;;1.10;;
6590;SDS011;3331;47.978;7.662;2022-07-10T21:22:31;1.97;;;1.23;;
6590;SDS011;3331;47.978;7.662;2022-07-10T21:25:05;1.87;;;1.30;;
6590;SDS011;3331;47.978;7.662;2022-07-10T21:27:44;2.70;;;1.10;;
6590;SDS011;3331;47.978;7.662;2022-07-10T21:30:22;2.03;;;1.10;;
6590;SDS011;3331;47.978;7.662;2022-07-10T21:36:33;3.63;;;1.10;;
6590;SDS011;3331;47.978;7.662;2022-07-10T21:39:29;1.43;;;1.20;;
6590;SDS011;3331;47.978;7.662;2022-07-10T21:42:17;2.50;;;1.20;;
6590;SDS011;3331;47.978;7.662;2022-07-10T21:45:13;2.43;;;1.20;;
6590;SDS011;3331;47.978;7.662;2022-07-10T21:48:01;4.70;;;1.30;;
6590;SDS011;3331;47.978;7.662;2022-07-10T21:50:59;3.83;;;1.40;;
6590;SDS011;3331;47.978;7.662;2022-07-10T21:53:53;1.30;;;1.20;;
6590;SDS011;3331;47.978;7.662;2022-07-10T21:57:19;2.43;;;1.30;;
